createdAt,value
2023-05-12T00:00:25.870Z,10.85
2023-05-12T00:02:52.580Z,11.70
2023-05-12T00:05:19.361Z,11.30
2023-05-12T00:07:45.779Z,11.10
2023-05-12T00:10:12.341Z,11.45
2023-05-12T00:12:38.843Z,10.50
2023-05-12T00:15:05.939Z,10.50
2023-05-12T00:17:32.438Z,10.30
2023-05-12T00:19:58.952Z,10.45
2023-05-12T00:22:26.854Z,10.10
2023-05-12T00:24:53.437Z,10.18
2023-05-12T00:27:19.920Z,10.18
2023-05-12T00:29:46.376Z,10.50
2023-05-12T00:32:12.860Z,10.60
2023-05-12T00:34:59.819Z,10.32
2023-05-12T00:37:26.354Z,11.18
2023-05-12T00:39:52.956Z,11.38
2023-05-12T00:42:19.528Z,11.23
2023-05-12T00:44:47.130Z,11.45
2023-05-12T00:47:14.391Z,10.32
2023-05-12T00:49:43.764Z,10.30
2023-05-12T00:54:38.732Z,10.63
2023-05-12T00:57:05.772Z,10.82
2023-05-12T00:59:32.402Z,10.50
2023-05-12T01:01:59.354Z,10.48
2023-05-12T01:04:26.507Z,10.60
2023-05-12T01:06:59.649Z,10.48
2023-05-12T01:09:26.382Z,10.75
2023-05-12T01:11:53.204Z,10.45
2023-05-12T01:14:20.149Z,11.07
2023-05-12T01:16:56.303Z,10.65
2023-05-12T01:19:49.422Z,11.10
2023-05-12T01:22:17.474Z,12.02
2023-05-12T01:25:01.828Z,10.63
2023-05-12T01:27:30.513Z,10.32
2023-05-12T01:30:02.111Z,10.00
2023-05-12T01:32:32.264Z,10.70
2023-05-12T01:34:58.750Z,10.80
2023-05-12T01:37:26.937Z,10.57
2023-05-12T01:39:54.587Z,11.70
2023-05-12T01:42:21.542Z,11.90
2023-05-12T01:44:49.005Z,11.55
2023-05-12T01:47:15.874Z,11.63
2023-05-12T01:49:47.876Z,12.32
2023-05-12T01:52:15.838Z,12.07
2023-05-12T01:54:42.405Z,12.75
2023-05-12T01:57:09.875Z,13.02
2023-05-12T01:59:38.188Z,12.30
2023-05-12T02:02:06.340Z,12.68
2023-05-12T02:04:35.169Z,12.63
2023-05-12T02:07:02.084Z,13.10
2023-05-12T02:09:29.154Z,11.90
2023-05-12T02:12:00.676Z,11.70
2023-05-12T02:14:27.942Z,11.68
2023-05-12T02:16:56.333Z,11.38
2023-05-12T02:21:51.280Z,12.27
2023-05-12T02:24:17.774Z,11.98
2023-05-12T02:26:44.947Z,12.50
2023-05-12T02:29:13.015Z,12.85
2023-05-12T02:31:39.578Z,13.40
2023-05-12T02:34:15.169Z,14.00
2023-05-12T02:36:41.693Z,13.90
2023-05-12T02:39:08.377Z,14.07
2023-05-12T02:41:35.556Z,13.57
2023-05-12T02:44:02.172Z,14.68
2023-05-12T02:46:28.716Z,14.50
2023-05-12T02:48:55.874Z,14.48
2023-05-12T02:51:22.946Z,14.20
2023-05-12T02:53:49.452Z,14.10
2023-05-12T02:56:17.627Z,15.90
2023-05-12T02:58:44.290Z,15.88
2023-05-12T03:01:11.846Z,16.38
2023-05-12T03:03:40.496Z,15.77
2023-05-12T03:06:07.755Z,15.77
2023-05-12T03:08:34.769Z,17.00
2023-05-12T03:11:01.510Z,16.25
2023-05-12T03:13:28.077Z,16.48
2023-05-12T03:15:55.596Z,16.75
2023-05-12T03:18:22.191Z,16.48
2023-05-12T03:20:49.978Z,15.77
2023-05-12T03:23:16.866Z,16.88
2023-05-12T03:25:43.991Z,16.30
2023-05-12T03:28:11.399Z,17.17
2023-05-12T03:30:38.119Z,17.17
2023-05-12T03:33:04.984Z,18.35
2023-05-12T03:35:31.766Z,18.48
2023-05-12T03:38:01.470Z,18.02
2023-05-12T03:40:28.536Z,18.17
2023-05-12T03:42:55.027Z,16.88
2023-05-12T03:45:21.776Z,16.63
2023-05-12T03:47:48.653Z,17.67
2023-05-12T03:50:15.502Z,17.52
2023-05-12T03:52:41.994Z,16.40
2023-05-12T03:55:09.083Z,17.10
2023-05-12T03:57:36.585Z,17.38
2023-05-12T04:00:04.943Z,17.23
2023-05-12T04:02:39.323Z,17.58
2023-05-12T04:05:08.566Z,16.50
2023-05-12T04:07:35.610Z,16.67
2023-05-12T04:10:02.125Z,17.13
2023-05-12T04:12:29.020Z,17.10
2023-05-12T04:14:55.869Z,17.45
2023-05-12T04:17:24.267Z,16.60
2023-05-12T04:19:53.412Z,16.77
2023-05-12T04:22:19.980Z,17.13
2023-05-12T04:24:46.546Z,17.35
2023-05-12T04:27:13.128Z,16.85
2023-05-12T04:29:39.702Z,16.98
2023-05-12T04:32:06.479Z,16.13
2023-05-12T04:34:34.319Z,17.98
2023-05-12T04:37:00.996Z,16.65
2023-05-12T04:39:30.602Z,18.30
2023-05-12T04:42:00.970Z,17.13
2023-05-12T04:44:28.154Z,17.42
2023-05-12T04:46:56.365Z,16.52
2023-05-12T04:49:23.632Z,15.90
2023-05-12T04:51:50.280Z,16.00
2023-05-12T04:54:16.999Z,15.30
2023-05-12T04:56:43.509Z,14.70
2023-05-12T04:59:11.519Z,15.32
2023-05-12T05:01:38.548Z,14.52
2023-05-12T05:04:05.207Z,14.10
2023-05-12T05:06:31.821Z,13.30
2023-05-12T05:08:59.604Z,13.70
2023-05-12T05:11:26.229Z,15.25
2023-05-12T05:13:52.828Z,14.45
2023-05-12T05:16:20.125Z,15.38
2023-05-12T05:18:47.911Z,14.73
2023-05-12T05:21:14.841Z,14.95
2023-05-12T05:23:41.780Z,14.88
2023-05-12T05:26:09.294Z,15.00
2023-05-12T05:28:36.537Z,14.57
2023-05-12T05:31:03.315Z,14.18
2023-05-12T05:33:30.101Z,13.75
2023-05-12T05:35:56.848Z,13.63
2023-05-12T05:38:23.782Z,13.07
2023-05-12T05:40:54.249Z,13.43
2023-05-12T05:43:22.305Z,12.25
2023-05-12T05:45:52.014Z,12.70
2023-05-12T05:48:20.812Z,12.43
2023-05-12T05:50:47.453Z,12.80
2023-05-12T05:53:14.370Z,11.77
2023-05-12T05:55:41.195Z,11.60
2023-05-12T05:58:07.792Z,11.65
2023-05-12T06:00:34.449Z,10.77
2023-05-12T06:03:01.599Z,9.52
2023-05-12T06:05:28.373Z,9.68
2023-05-12T06:07:55.132Z,9.07
2023-05-12T06:10:22.156Z,9.18
2023-05-12T06:12:50.246Z,9.30
2023-05-12T06:15:16.964Z,9.55
2023-05-12T06:17:43.586Z,9.43
2023-05-12T06:20:10.624Z,9.25
2023-05-12T06:22:37.231Z,9.18
2023-05-12T06:25:03.972Z,9.27
2023-05-12T06:27:31.473Z,8.73
2023-05-12T06:29:58.059Z,8.80
2023-05-12T06:32:24.657Z,8.38
2023-05-12T06:34:51.310Z,8.02
2023-05-12T06:37:17.828Z,8.60
2023-05-12T06:39:44.476Z,7.95
2023-05-12T06:42:11.503Z,7.93
2023-05-12T06:44:42.598Z,7.75
2023-05-12T06:47:09.529Z,7.55
2023-05-12T06:49:37.164Z,7.50
2023-05-12T06:52:05.249Z,6.70
2023-05-12T06:54:32.153Z,7.13
2023-05-12T06:56:58.797Z,7.10
2023-05-12T06:59:25.441Z,7.13
2023-05-12T07:01:52.168Z,7.15
2023-05-12T07:04:18.895Z,6.72
2023-05-12T07:06:45.631Z,6.72
2023-05-12T07:09:14.326Z,6.82
2023-05-12T07:11:40.983Z,6.90
2023-05-12T07:14:07.530Z,6.78
2023-05-12T07:16:34.354Z,6.50
2023-05-12T07:19:01.295Z,6.20
2023-05-12T07:21:29.583Z,6.60
2023-05-12T07:23:56.124Z,6.43
2023-05-12T07:26:24.314Z,6.00
2023-05-12T07:28:50.841Z,5.88
2023-05-12T07:31:17.425Z,6.20
2023-05-12T07:33:44.930Z,6.05
2023-05-12T07:36:11.494Z,6.45
2023-05-12T07:38:38.083Z,6.00
2023-05-12T07:41:04.778Z,5.95
2023-05-12T07:43:35.913Z,5.63
2023-05-12T07:46:02.610Z,5.80
2023-05-12T07:48:29.919Z,5.38
2023-05-12T07:50:57.146Z,5.22
2023-05-12T07:53:23.870Z,5.25
2023-05-12T07:55:50.749Z,5.28
2023-05-12T07:58:17.341Z,5.28
2023-05-12T08:00:44.902Z,5.10
2023-05-12T08:03:11.683Z,5.60
2023-05-12T08:05:38.319Z,5.30
2023-05-12T08:08:05.189Z,5.50
2023-05-12T08:10:33.067Z,5.75
2023-05-12T08:12:59.797Z,5.88
2023-05-12T08:15:26.405Z,5.80
2023-05-12T08:17:52.965Z,5.53
2023-05-12T08:20:19.508Z,5.03
2023-05-12T08:22:47.827Z,5.28
2023-05-12T08:25:14.699Z,5.70
2023-05-12T08:27:41.360Z,5.70
2023-05-12T08:30:09.474Z,6.00
2023-05-12T08:32:36.330Z,5.90
2023-05-12T08:35:03.268Z,5.80
2023-05-12T08:37:30.938Z,5.90
2023-05-12T08:39:58.344Z,5.53
2023-05-12T08:42:39.746Z,5.82
2023-05-12T08:45:07.244Z,5.53
2023-05-12T08:47:34.349Z,5.40
2023-05-12T08:50:03.151Z,5.30
2023-05-12T08:52:35.224Z,5.50
2023-05-12T08:55:03.468Z,5.80
2023-05-12T08:57:31.206Z,5.60
2023-05-12T08:59:59.458Z,5.90
2023-05-12T09:02:32.734Z,6.40
2023-05-12T09:05:04.730Z,5.78
2023-05-12T09:07:31.720Z,5.88
2023-05-12T09:10:02.198Z,6.40
2023-05-12T09:12:35.515Z,5.82
2023-05-12T09:15:10.315Z,5.57
2023-05-12T09:17:37.296Z,5.45
2023-05-12T09:20:05.554Z,4.95
2023-05-12T09:22:35.968Z,4.70
2023-05-12T09:25:17.335Z,4.90
2023-05-12T09:27:46.527Z,5.05
2023-05-12T09:30:13.721Z,4.53
2023-05-12T09:32:43.124Z,5.22
2023-05-12T09:35:13.568Z,4.78
2023-05-12T09:37:40.557Z,4.70
2023-05-12T09:40:08.501Z,5.10
2023-05-12T09:42:36.016Z,5.05
2023-05-12T09:45:11.081Z,4.93
2023-05-12T09:47:39.031Z,5.10
2023-05-12T09:50:07.776Z,5.25
2023-05-12T09:52:41.112Z,5.60
2023-05-12T09:55:09.869Z,5.40
2023-05-12T09:57:43.751Z,4.97
2023-05-12T10:00:34.603Z,5.90
2023-05-12T10:03:13.049Z,5.80
2023-05-12T10:05:47.100Z,5.72
2023-05-12T10:08:20.912Z,5.15
2023-05-12T10:10:49.188Z,5.43
2023-05-12T10:13:16.161Z,5.60
2023-05-12T10:15:43.018Z,5.30
2023-05-12T10:18:10.133Z,5.20
2023-05-12T10:20:37.164Z,5.30
2023-05-12T10:23:04.171Z,5.70
2023-05-12T10:25:30.988Z,5.28
2023-05-12T10:27:57.998Z,5.32
2023-05-12T10:30:24.623Z,5.60
2023-05-12T10:32:51.188Z,5.80
2023-05-12T10:35:17.815Z,6.30
2023-05-12T10:37:46.491Z,5.63
2023-05-12T10:40:23.552Z,5.32
2023-05-12T10:42:51.677Z,5.50
2023-05-12T10:45:20.052Z,5.95
2023-05-12T10:47:47.806Z,5.25
2023-05-12T10:50:14.579Z,5.53
2023-05-12T10:52:41.993Z,5.75
2023-05-12T10:55:12.878Z,5.70
2023-05-12T10:57:49.517Z,5.75
2023-05-12T11:00:16.911Z,5.18
2023-05-12T11:02:52.076Z,5.28
2023-05-12T11:05:19.711Z,4.95
2023-05-12T11:07:50.879Z,5.03
2023-05-12T11:10:18.339Z,5.30
2023-05-12T11:12:45.276Z,5.53
2023-05-12T11:15:12.227Z,5.40
2023-05-12T11:17:40.732Z,5.82
2023-05-12T11:20:09.880Z,6.20
2023-05-12T11:25:11.789Z,5.53
2023-05-12T11:27:42.415Z,5.38
2023-05-12T11:30:10.976Z,5.40
2023-05-12T11:32:38.212Z,4.90
2023-05-12T11:35:16.432Z,5.40
2023-05-12T11:37:44.245Z,5.25
2023-05-12T11:40:21.094Z,5.28
2023-05-12T11:42:52.819Z,5.75
2023-05-12T11:45:30.516Z,5.97
2023-05-12T11:48:12.796Z,5.88
2023-05-12T11:50:41.876Z,5.55
2023-05-12T11:53:14.627Z,5.45
2023-05-12T11:55:51.018Z,5.82
2023-05-12T11:58:22.365Z,5.78
2023-05-12T12:00:49.114Z,5.35
2023-05-12T12:03:16.518Z,6.07
2023-05-12T12:05:45.373Z,5.93
2023-05-12T12:08:13.739Z,5.75
2023-05-12T12:10:46.681Z,5.93
2023-05-12T12:13:19.565Z,6.70
2023-05-12T12:15:46.198Z,6.30
2023-05-12T12:18:12.772Z,6.35
2023-05-12T12:20:39.423Z,6.32
2023-05-12T12:23:06.047Z,6.15
2023-05-12T12:25:32.743Z,6.10
2023-05-12T12:27:59.432Z,6.60
2023-05-12T12:30:26.145Z,6.35
2023-05-12T12:32:52.763Z,6.53
2023-05-12T12:35:19.615Z,6.68
2023-05-12T12:37:54.130Z,6.45
2023-05-12T12:40:21.552Z,6.40
2023-05-12T12:42:48.176Z,7.68
2023-05-12T12:45:14.830Z,7.40
2023-05-12T12:47:41.436Z,7.22
2023-05-12T12:50:10.013Z,7.55
2023-05-12T12:52:38.335Z,7.22
2023-05-12T12:55:06.497Z,6.97
2023-05-12T12:57:36.282Z,6.78
2023-05-12T13:00:04.594Z,7.00
2023-05-12T13:02:32.659Z,7.57
2023-05-12T13:05:03.768Z,7.30
2023-05-12T13:07:30.765Z,7.10
2023-05-12T13:10:00.666Z,6.35
2023-05-12T13:12:29.313Z,7.13
2023-05-12T13:14:56.028Z,7.40
2023-05-12T13:17:26.163Z,6.30
2023-05-12T13:19:53.167Z,6.82
2023-05-12T13:22:20.062Z,6.95
2023-05-12T13:24:47.271Z,7.20
2023-05-12T13:27:13.979Z,7.68
2023-05-12T13:29:42.362Z,7.30
2023-05-12T13:32:09.167Z,7.40
2023-05-12T13:34:35.761Z,7.40
2023-05-12T13:37:05.498Z,7.55
2023-05-12T13:39:33.177Z,7.32
2023-05-12T13:42:00.756Z,7.50
2023-05-12T13:44:27.678Z,7.45
2023-05-12T13:46:54.385Z,8.00
2023-05-12T13:49:24.168Z,7.65
2023-05-12T13:51:50.936Z,7.68
2023-05-12T13:54:17.740Z,7.45
2023-05-12T13:56:44.956Z,7.93
2023-05-12T13:59:12.867Z,7.03
2023-05-12T14:01:40.081Z,7.35
2023-05-12T14:04:06.705Z,7.50
2023-05-12T14:06:33.409Z,7.90
2023-05-12T14:09:00.259Z,8.50
2023-05-12T14:11:26.945Z,11.32
2023-05-12T14:13:53.713Z,6.50
2023-05-12T14:16:20.814Z,6.40
2023-05-12T14:18:50.454Z,6.13
2023-05-12T14:21:17.167Z,5.80
2023-05-12T14:23:46.716Z,5.88
2023-05-12T14:26:13.319Z,4.93
2023-05-12T14:28:42.854Z,4.70
2023-05-12T14:31:09.471Z,4.53
2023-05-12T14:33:39.125Z,4.32
2023-05-12T14:36:08.486Z,4.18
2023-05-12T14:38:35.903Z,4.60
2023-05-12T14:41:02.508Z,4.28
2023-05-12T14:43:29.126Z,4.53
2023-05-12T14:45:55.853Z,4.32
2023-05-12T14:48:23.632Z,4.22
2023-05-12T14:50:54.268Z,4.15
2023-05-12T14:53:21.662Z,3.72
2023-05-12T14:55:52.342Z,4.10
2023-05-12T14:58:20.832Z,3.30
2023-05-12T15:00:48.651Z,3.58
2023-05-12T15:03:15.772Z,3.10
2023-05-12T15:06:01.597Z,3.33
2023-05-12T15:08:29.139Z,3.30
2023-05-12T15:10:55.721Z,3.67
2023-05-12T15:13:22.823Z,3.35
2023-05-12T15:15:50.972Z,3.42
2023-05-12T15:18:19.711Z,3.50
2023-05-12T15:20:46.360Z,2.97
2023-05-12T15:23:12.967Z,3.17
2023-05-12T15:25:40.726Z,3.05
2023-05-12T15:28:07.544Z,3.08
2023-05-12T15:30:35.788Z,3.10
2023-05-12T15:33:04.311Z,3.17
2023-05-12T15:35:30.977Z,3.40
2023-05-12T15:37:57.589Z,3.50
2023-05-12T15:40:24.568Z,3.25
2023-05-12T15:42:51.363Z,2.90
2023-05-12T15:45:17.984Z,3.10
2023-05-12T15:47:44.644Z,3.00
2023-05-12T15:50:11.486Z,3.30
2023-05-12T15:52:38.161Z,2.83
2023-05-12T15:55:05.177Z,3.08
2023-05-12T15:57:31.713Z,3.30
2023-05-12T15:59:59.054Z,3.08
2023-05-12T16:02:25.914Z,3.13
2023-05-12T16:04:52.532Z,2.80
2023-05-12T16:07:19.371Z,2.95
2023-05-12T16:09:45.961Z,3.10
2023-05-12T16:12:12.482Z,2.97
2023-05-12T16:14:39.056Z,3.30
2023-05-12T16:17:05.883Z,3.20
2023-05-12T16:19:32.520Z,3.10
2023-05-12T16:21:59.972Z,3.42
2023-05-12T16:24:28.662Z,3.70
2023-05-12T16:26:56.126Z,3.00
2023-05-12T16:29:22.708Z,3.13
2023-05-12T16:31:49.573Z,2.80
2023-05-12T16:34:16.280Z,2.80
2023-05-12T16:36:42.797Z,3.05
2023-05-12T16:39:09.426Z,2.80
2023-05-12T16:41:36.017Z,2.70
2023-05-12T16:44:02.825Z,3.20
2023-05-12T16:46:29.778Z,2.78
2023-05-12T16:48:56.418Z,2.70
2023-05-12T16:51:23.760Z,2.90
2023-05-12T16:53:50.369Z,2.63
2023-05-12T16:56:16.948Z,2.60
2023-05-12T16:58:44.286Z,2.50
2023-05-12T17:01:10.958Z,2.72
2023-05-12T17:03:37.826Z,2.60
2023-05-12T17:06:05.133Z,2.80
2023-05-12T17:08:31.889Z,2.50
2023-05-12T17:10:58.536Z,3.08
2023-05-12T17:13:25.184Z,2.83
2023-05-12T17:15:52.129Z,2.83
2023-05-12T17:18:18.783Z,2.83
2023-05-12T17:20:45.400Z,2.58
2023-05-12T17:23:12.752Z,2.78
2023-05-12T17:25:39.660Z,2.75
2023-05-12T17:28:06.186Z,2.70
2023-05-12T17:30:32.831Z,2.63
2023-05-12T17:32:59.452Z,2.88
2023-05-12T17:35:26.136Z,2.65
2023-05-12T17:37:55.156Z,2.65
2023-05-12T17:40:22.363Z,2.40
2023-05-12T17:42:50.248Z,2.70
2023-05-12T17:45:17.467Z,2.70
2023-05-12T17:47:44.915Z,2.60
2023-05-12T17:50:12.658Z,2.78
2023-05-12T17:52:39.289Z,2.60
2023-05-12T17:55:06.298Z,2.67
2023-05-12T17:57:54.175Z,2.80
2023-05-12T18:00:20.800Z,3.03
2023-05-12T18:02:47.924Z,2.80
2023-05-12T18:05:14.567Z,2.90
2023-05-12T18:07:41.250Z,3.60
2023-05-12T18:10:09.784Z,3.05
2023-05-12T18:12:37.680Z,3.85
2023-05-12T18:15:05.386Z,3.70
2023-05-12T18:17:32.569Z,4.85
2023-05-12T18:19:59.514Z,4.22
2023-05-12T18:22:26.497Z,4.13
2023-05-12T18:24:53.092Z,3.88
2023-05-12T18:27:19.744Z,3.60
2023-05-12T18:29:46.394Z,3.05
2023-05-12T18:32:13.015Z,3.38
2023-05-12T18:34:40.868Z,2.90
2023-05-12T18:37:07.532Z,3.25
2023-05-12T18:39:34.207Z,2.90
2023-05-12T18:42:00.823Z,2.70
2023-05-12T18:44:27.509Z,2.70
2023-05-12T18:46:54.173Z,3.00
2023-05-12T18:49:20.872Z,2.38
2023-05-12T18:51:47.534Z,2.72
2023-05-12T18:54:14.244Z,3.00
2023-05-12T18:56:41.235Z,2.65
2023-05-12T18:59:08.169Z,2.50
2023-05-12T19:01:35.006Z,2.60
2023-05-12T19:04:04.384Z,2.70
